sensor_id;sensor_type;location;lat;lon;timestamp;P1;durP1;ratioP1;P2;durP2;ratioP2
45354;SDS011;31091;48.758;9.150;2023-04-23T00:00:29;6.30;;;2.80;;
45354;SDS011;31091;48.758;9.150;2023-04-23T00:03:14;4.65;;;2.15;;
45354;SDS011;31091;48.758;9.150;2023-04-23T00:06:06;3.50;;;2.10;;
45354;SDS011;31091;48.758;9.150;2023-04-23T00:08:52;6.23;;;3.53;;
45354;SDS011;31091;48.758;9.150;2023-04-23T00:11:37;4.43;;;2.55;;
45354;SDS011;31091;48.758;9.150;2023-04-23T00:14:22;4.93;;;2.28;;
45354;SDS011;31091;48.758;9.150;2023-04-23T00:17:08;4.03;;;2.13;;
45354;SDS011;31091;48.758;9.150;2023-04-23T00:19:53;5.35;;;2.25;;
45354;SDS011;31091;48.758;9.150;2023-04-23T00:22:38;4.07;;;2.33;;
45354;SDS011;31091;48.758;9.150;2023-04-23T00:25:24;5.88;;;2.75;;
45354;SDS011;31091;48.758;9.150;2023-04-23T00:28:09;3.40;;;2.22;;
45354;SDS011;31091;48.758;9.150;2023-04-23T00:30:54;2.88;;;1.58;;
45354;SDS011;31091;48.758;9.150;2023-04-23T00:33:39;6.30;;;1.80;;
45354;SDS011;31091;48.758;9.150;2023-04-23T00:36:25;3.53;;;1.80;;
45354;SDS011;31091;48.758;9.150;2023-04-23T00:39:10;4.68;;;1.70;;
45354;SDS011;31091;48.758;9.150;2023-04-23T00:41:55;4.20;;;1.92;;
45354;SDS011;31091;48.758;9.150;2023-04-23T00:44:41;4.38;;;2.22;;
45354;SDS011;31091;48.758;9.150;2023-04-23T00:47:27;3.60;;;2.10;;
45354;SDS011;31091;48.758;9.150;2023-04-23T00:50:13;3.70;;;2.00;;
45354;SDS011;31091;48.758;9.150;2023-04-23T00:52:58;4.57;;;1.88;;
45354;SDS011;31091;48.758;9.150;2023-04-23T00:55:44;2.72;;;1.52;;
45354;SDS011;31091;48.758;9.150;2023-04-23T00:58:29;3.30;;;1.85;;
45354;SDS011;31091;48.758;9.150;2023-04-23T01:01:15;12.15;;;2.78;;
45354;SDS011;31091;48.758;9.150;2023-04-23T01:04:04;4.75;;;2.80;;
45354;SDS011;31091;48.758;9.150;2023-04-23T01:06:50;2.65;;;1.83;;
45354;SDS011;31091;48.758;9.150;2023-04-23T01:09:35;5.90;;;1.60;;
45354;SDS011;31091;48.758;9.150;2023-04-23T01:12:21;3.05;;;1.98;;
45354;SDS011;31091;48.758;9.150;2023-04-23T01:15:06;2.35;;;1.75;;
45354;SDS011;31091;48.758;9.150;2023-04-23T01:17:52;2.72;;;1.58;;
45354;SDS011;31091;48.758;9.150;2023-04-23T01:20:38;3.95;;;1.75;;
45354;SDS011;31091;48.758;9.150;2023-04-23T01:23:23;3.03;;;1.65;;
45354;SDS011;31091;48.758;9.150;2023-04-23T01:26:08;4.20;;;2.00;;
45354;SDS011;31091;48.758;9.150;2023-04-23T01:28:54;4.45;;;2.15;;
45354;SDS011;31091;48.758;9.150;2023-04-23T01:31:40;3.53;;;2.15;;
45354;SDS011;31091;48.758;9.150;2023-04-23T01:34:25;3.47;;;2.20;;
45354;SDS011;31091;48.758;9.150;2023-04-23T01:37:11;5.88;;;2.35;;
45354;SDS011;31091;48.758;9.150;2023-04-23T01:39:56;5.25;;;1.90;;
45354;SDS011;31091;48.758;9.150;2023-04-23T01:42:41;5.18;;;2.15;;
45354;SDS011;31091;48.758;9.150;2023-04-23T01:45:27;4.72;;;2.10;;
45354;SDS011;31091;48.758;9.150;2023-04-23T01:48:12;6.20;;;2.15;;
45354;SDS011;31091;48.758;9.150;2023-04-23T01:50:57;4.72;;;1.83;;
45354;SDS011;31091;48.758;9.150;2023-04-23T01:53:43;3.85;;;2.22;;
45354;SDS011;31091;48.758;9.150;2023-04-23T01:56:28;4.78;;;1.75;;
45354;SDS011;31091;48.758;9.150;2023-04-23T01:59:14;3.38;;;1.98;;
45354;SDS011;31091;48.758;9.150;2023-04-23T02:01:59;5.90;;;2.15;;
45354;SDS011;31091;48.758;9.150;2023-04-23T02:04:45;6.68;;;2.17;;
45354;SDS011;31091;48.758;9.150;2023-04-23T02:07:32;4.47;;;2.20;;
45354;SDS011;31091;48.758;9.150;2023-04-23T02:10:17;3.47;;;1.90;;
45354;SDS011;31091;48.758;9.150;2023-04-23T02:13:02;3.20;;;1.70;;
45354;SDS011;31091;48.758;9.150;2023-04-23T02:15:48;5.05;;;1.90;;
45354;SDS011;31091;48.758;9.150;2023-04-23T02:18:33;3.45;;;1.90;;
45354;SDS011;31091;48.758;9.150;2023-04-23T02:21:18;4.28;;;2.35;;
45354;SDS011;31091;48.758;9.150;2023-04-23T02:24:04;3.13;;;1.80;;
45354;SDS011;31091;48.758;9.150;2023-04-23T02:26:49;3.35;;;1.80;;
45354;SDS011;31091;48.758;9.150;2023-04-23T02:29:34;3.88;;;1.98;;
45354;SDS011;31091;48.758;9.150;2023-04-23T02:32:20;2.42;;;1.80;;
45354;SDS011;31091;48.758;9.150;2023-04-23T02:35:06;4.90;;;1.90;;
45354;SDS011;31091;48.758;9.150;2023-04-23T02:37:53;6.57;;;2.20;;
45354;SDS011;31091;48.758;9.150;2023-04-23T02:40:38;6.85;;;2.15;;
45354;SDS011;31091;48.758;9.150;2023-04-23T02:43:23;5.90;;;2.30;;
45354;SDS011;31091;48.758;9.150;2023-04-23T02:46:09;5.38;;;2.80;;
45354;SDS011;31091;48.758;9.150;2023-04-23T02:48:54;4.68;;;2.20;;
45354;SDS011;31091;48.758;9.150;2023-04-23T02:51:39;3.20;;;1.88;;
45354;SDS011;31091;48.758;9.150;2023-04-23T02:54:24;4.57;;;1.60;;
45354;SDS011;31091;48.758;9.150;2023-04-23T02:57:10;1.88;;;1.55;;
45354;SDS011;31091;48.758;9.150;2023-04-23T02:59:58;3.33;;;1.92;;
45354;SDS011;31091;48.758;9.150;2023-04-23T03:02:43;3.80;;;2.28;;
45354;SDS011;31091;48.758;9.150;2023-04-23T03:05:28;3.13;;;1.88;;
45354;SDS011;31091;48.758;9.150;2023-04-23T03:08:14;6.35;;;2.33;;
45354;SDS011;31091;48.758;9.150;2023-04-23T03:10:59;3.78;;;2.45;;
45354;SDS011;31091;48.758;9.150;2023-04-23T03:13:44;3.25;;;1.88;;
45354;SDS011;31091;48.758;9.150;2023-04-23T03:16:30;4.00;;;1.98;;
45354;SDS011;31091;48.758;9.150;2023-04-23T03:19:16;5.43;;;2.75;;
45354;SDS011;31091;48.758;9.150;2023-04-23T03:22:01;4.13;;;1.70;;
45354;SDS011;31091;48.758;9.150;2023-04-23T03:24:49;3.85;;;2.00;;
45354;SDS011;31091;48.758;9.150;2023-04-23T03:27:34;3.00;;;2.10;;
45354;SDS011;31091;48.758;9.150;2023-04-23T03:30:20;2.53;;;1.80;;
45354;SDS011;31091;48.758;9.150;2023-04-23T03:33:06;4.88;;;2.60;;
45354;SDS011;31091;48.758;9.150;2023-04-23T03:35:51;3.78;;;1.98;;
45354;SDS011;31091;48.758;9.150;2023-04-23T03:38:36;2.45;;;1.80;;
45354;SDS011;31091;48.758;9.150;2023-04-23T03:41:22;3.25;;;1.90;;
45354;SDS011;31091;48.758;9.150;2023-04-23T03:44:07;3.47;;;1.55;;
45354;SDS011;31091;48.758;9.150;2023-04-23T03:46:53;1.88;;;1.65;;
45354;SDS011;31091;48.758;9.150;2023-04-23T03:49:38;2.63;;;1.55;;
45354;SDS011;31091;48.758;9.150;2023-04-23T03:52:24;2.17;;;1.13;;
45354;SDS011;31091;48.758;9.150;2023-04-23T03:55:09;4.28;;;1.67;;
45354;SDS011;31091;48.758;9.150;2023-04-23T03:57:54;1.67;;;1.33;;
45354;SDS011;31091;48.758;9.150;2023-04-23T04:00:40;2.92;;;1.33;;
45354;SDS011;31091;48.758;9.150;2023-04-23T04:03:25;2.55;;;1.27;;
45354;SDS011;31091;48.758;9.150;2023-04-23T04:06:10;3.80;;;1.70;;
45354;SDS011;31091;48.758;9.150;2023-04-23T04:08:55;2.63;;;1.55;;
45354;SDS011;31091;48.758;9.150;2023-04-23T04:11:41;2.72;;;1.48;;
45354;SDS011;31091;48.758;9.150;2023-04-23T04:14:26;3.03;;;1.35;;
45354;SDS011;31091;48.758;9.150;2023-04-23T04:17:11;5.03;;;1.85;;
45354;SDS011;31091;48.758;9.150;2023-04-23T04:19:59;1.55;;;1.40;;
45354;SDS011;31091;48.758;9.150;2023-04-23T04:22:45;3.50;;;1.50;;
45354;SDS011;31091;48.758;9.150;2023-04-23T04:25:30;3.88;;;1.58;;
45354;SDS011;31091;48.758;9.150;2023-04-23T04:28:16;4.28;;;1.50;;
45354;SDS011;31091;48.758;9.150;2023-04-23T04:31:04;1.90;;;1.30;;
45354;SDS011;31091;48.758;9.150;2023-04-23T04:33:50;1.88;;;1.30;;
45354;SDS011;31091;48.758;9.150;2023-04-23T04:36:35;2.40;;;1.40;;
45354;SDS011;31091;48.758;9.150;2023-04-23T04:39:21;2.72;;;1.55;;
45354;SDS011;31091;48.758;9.150;2023-04-23T04:42:06;2.97;;;1.50;;
45354;SDS011;31091;48.758;9.150;2023-04-23T04:44:51;1.98;;;1.38;;
45354;SDS011;31091;48.758;9.150;2023-04-23T04:47:37;2.75;;;1.40;;
45354;SDS011;31091;48.758;9.150;2023-04-23T04:50:22;3.10;;;1.58;;
45354;SDS011;31091;48.758;9.150;2023-04-23T04:53:08;2.55;;;1.67;;
45354;SDS011;31091;48.758;9.150;2023-04-23T04:55:53;2.42;;;1.65;;
45354;SDS011;31091;48.758;9.150;2023-04-23T04:58:39;3.35;;;2.05;;
45354;SDS011;31091;48.758;9.150;2023-04-23T05:01:27;4.22;;;1.65;;
45354;SDS011;31091;48.758;9.150;2023-04-23T05:04:13;2.70;;;1.90;;
45354;SDS011;31091;48.758;9.150;2023-04-23T05:06:58;3.72;;;1.40;;
45354;SDS011;31091;48.758;9.150;2023-04-23T05:09:43;1.85;;;1.30;;
45354;SDS011;31091;48.758;9.150;2023-04-23T05:12:28;1.83;;;1.17;;
45354;SDS011;31091;48.758;9.150;2023-04-23T05:15:14;2.67;;;1.90;;
45354;SDS011;31091;48.758;9.150;2023-04-23T05:17:59;3.28;;;1.83;;
45354;SDS011;31091;48.758;9.150;2023-04-23T05:20:44;3.42;;;1.98;;
45354;SDS011;31091;48.758;9.150;2023-04-23T05:23:29;2.42;;;1.90;;
45354;SDS011;31091;48.758;9.150;2023-04-23T05:26:15;3.15;;;1.83;;
45354;SDS011;31091;48.758;9.150;2023-04-23T05:29:00;3.30;;;1.60;;
45354;SDS011;31091;48.758;9.150;2023-04-23T05:31:46;2.28;;;1.40;;
45354;SDS011;31091;48.758;9.150;2023-04-23T05:34:31;3.90;;;1.63;;
45354;SDS011;31091;48.758;9.150;2023-04-23T05:37:16;3.47;;;2.00;;
45354;SDS011;31091;48.758;9.150;2023-04-23T05:40:01;3.47;;;1.92;;
45354;SDS011;31091;48.758;9.150;2023-04-23T05:42:48;3.75;;;2.17;;
45354;SDS011;31091;48.758;9.150;2023-04-23T05:45:33;2.78;;;1.83;;
45354;SDS011;31091;48.758;9.150;2023-04-23T05:48:19;4.30;;;2.55;;
45354;SDS011;31091;48.758;9.150;2023-04-23T05:51:04;2.53;;;1.85;;
45354;SDS011;31091;48.758;9.150;2023-04-23T05:53:49;3.25;;;1.80;;
45354;SDS011;31091;48.758;9.150;2023-04-23T05:56:35;3.05;;;1.60;;
45354;SDS011;31091;48.758;9.150;2023-04-23T05:59:20;1.77;;;1.45;;
45354;SDS011;31091;48.758;9.150;2023-04-23T06:02:06;2.25;;;1.50;;
45354;SDS011;31091;48.758;9.150;2023-04-23T06:04:51;2.25;;;1.17;;
45354;SDS011;31091;48.758;9.150;2023-04-23T06:07:37;1.95;;;1.45;;
45354;SDS011;31091;48.758;9.150;2023-04-23T06:10:22;1.25;;;0.90;;
45354;SDS011;31091;48.758;9.150;2023-04-23T06:13:07;1.98;;;1.10;;
45354;SDS011;31091;48.758;9.150;2023-04-23T06:15:52;3.40;;;1.10;;
45354;SDS011;31091;48.758;9.150;2023-04-23T06:18:38;2.88;;;0.88;;
45354;SDS011;31091;48.758;9.150;2023-04-23T06:21:23;2.83;;;1.15;;
45354;SDS011;31091;48.758;9.150;2023-04-23T06:24:08;1.65;;;1.00;;
45354;SDS011;31091;48.758;9.150;2023-04-23T06:26:54;1.13;;;0.98;;
45354;SDS011;31091;48.758;9.150;2023-04-23T06:29:39;1.83;;;1.15;;
45354;SDS011;31091;48.758;9.150;2023-04-23T06:32:24;1.02;;;1.00;;
45354;SDS011;31091;48.758;9.150;2023-04-23T06:35:09;3.60;;;0.85;;
45354;SDS011;31091;48.758;9.150;2023-04-23T06:37:55;1.33;;;0.88;;
45354;SDS011;31091;48.758;9.150;2023-04-23T06:40:40;1.63;;;1.05;;
45354;SDS011;31091;48.758;9.150;2023-04-23T06:43:25;2.25;;;1.17;;
45354;SDS011;31091;48.758;9.150;2023-04-23T06:46:10;0.90;;;0.82;;
45354;SDS011;31091;48.758;9.150;2023-04-23T06:48:56;2.35;;;0.90;;
45354;SDS011;31091;48.758;9.150;2023-04-23T06:51:41;1.00;;;0.90;;
45354;SDS011;31091;48.758;9.150;2023-04-23T06:54:26;1.45;;;0.93;;
45354;SDS011;31091;48.758;9.150;2023-04-23T06:57:11;1.35;;;0.80;;
45354;SDS011;31091;48.758;9.150;2023-04-23T06:59:56;0.80;;;0.80;;
45354;SDS011;31091;48.758;9.150;2023-04-23T07:02:42;1.95;;;1.05;;
45354;SDS011;31091;48.758;9.150;2023-04-23T07:05:27;1.48;;;1.02;;
45354;SDS011;31091;48.758;9.150;2023-04-23T07:08:13;1.70;;;1.10;;
45354;SDS011;31091;48.758;9.150;2023-04-23T07:10:58;2.53;;;1.10;;
45354;SDS011;31091;48.758;9.150;2023-04-23T07:13:43;0.93;;;0.80;;
45354;SDS011;31091;48.758;9.150;2023-04-23T07:16:29;3.28;;;1.13;;
45354;SDS011;31091;48.758;9.150;2023-04-23T07:19:17;2.92;;;0.88;;
45354;SDS011;31091;48.758;9.150;2023-04-23T07:22:02;0.75;;;0.65;;
45354;SDS011;31091;48.758;9.150;2023-04-23T07:24:48;0.77;;;0.77;;
45354;SDS011;31091;48.758;9.150;2023-04-23T07:27:33;0.70;;;0.70;;
45354;SDS011;31091;48.758;9.150;2023-04-23T07:30:19;0.73;;;0.73;;
45354;SDS011;31091;48.758;9.150;2023-04-23T07:33:04;3.20;;;1.00;;
45354;SDS011;31091;48.758;9.150;2023-04-23T07:35:50;0.88;;;0.88;;
45354;SDS011;31091;48.758;9.150;2023-04-23T07:38:35;1.00;;;0.70;;
45354;SDS011;31091;48.758;9.150;2023-04-23T07:41:20;1.60;;;1.02;;
45354;SDS011;31091;48.758;9.150;2023-04-23T07:44:05;1.17;;;1.00;;
45354;SDS011;31091;48.758;9.150;2023-04-23T07:46:51;2.08;;;1.08;;
45354;SDS011;31091;48.758;9.150;2023-04-23T07:49:36;1.77;;;1.05;;
45354;SDS011;31091;48.758;9.150;2023-04-23T07:52:21;1.15;;;1.05;;
45354;SDS011;31091;48.758;9.150;2023-04-23T07:55:07;1.92;;;1.02;;
45354;SDS011;31091;48.758;9.150;2023-04-23T07:57:52;2.25;;;1.20;;
45354;SDS011;31091;48.758;9.150;2023-04-23T08:00:38;2.00;;;1.58;;
45354;SDS011;31091;48.758;9.150;2023-04-23T08:03:23;4.40;;;1.35;;
45354;SDS011;31091;48.758;9.150;2023-04-23T08:06:11;3.38;;;1.42;;
45354;SDS011;31091;48.758;9.150;2023-04-23T08:08:56;3.35;;;1.50;;
45354;SDS011;31091;48.758;9.150;2023-04-23T08:11:42;2.70;;;1.30;;
45354;SDS011;31091;48.758;9.150;2023-04-23T08:14:27;1.55;;;1.08;;
45354;SDS011;31091;48.758;9.150;2023-04-23T08:17:12;2.30;;;1.00;;
45354;SDS011;31091;48.758;9.150;2023-04-23T08:19:57;3.80;;;1.63;;
45354;SDS011;31091;48.758;9.150;2023-04-23T08:22:43;3.65;;;1.83;;
45354;SDS011;31091;48.758;9.150;2023-04-23T08:25:28;3.13;;;1.42;;
45354;SDS011;31091;48.758;9.150;2023-04-23T08:28:13;2.92;;;1.58;;
45354;SDS011;31091;48.758;9.150;2023-04-23T08:30:59;3.83;;;1.48;;
45354;SDS011;31091;48.758;9.150;2023-04-23T08:33:44;1.65;;;1.30;;
45354;SDS011;31091;48.758;9.150;2023-04-23T08:36:29;2.42;;;1.25;;
45354;SDS011;31091;48.758;9.150;2023-04-23T08:39:16;2.42;;;1.25;;
45354;SDS011;31091;48.758;9.150;2023-04-23T08:42:03;6.68;;;1.73;;
45354;SDS011;31091;48.758;9.150;2023-04-23T08:44:49;4.55;;;1.77;;
45354;SDS011;31091;48.758;9.150;2023-04-23T08:47:35;2.90;;;1.23;;
45354;SDS011;31091;48.758;9.150;2023-04-23T08:50:24;2.60;;;1.00;;
45354;SDS011;31091;48.758;9.150;2023-04-23T08:53:09;3.38;;;1.38;;
45354;SDS011;31091;48.758;9.150;2023-04-23T08:55:55;2.45;;;1.52;;
45354;SDS011;31091;48.758;9.150;2023-04-23T08:58:41;2.63;;;1.30;;
45354;SDS011;31091;48.758;9.150;2023-04-23T09:01:27;2.10;;;1.23;;
45354;SDS011;31091;48.758;9.150;2023-04-23T09:04:12;1.35;;;1.25;;
45354;SDS011;31091;48.758;9.150;2023-04-23T09:07:00;1.65;;;1.33;;
45354;SDS011;31091;48.758;9.150;2023-04-23T09:09:46;8.73;;;1.35;;
45354;SDS011;31091;48.758;9.150;2023-04-23T09:12:31;5.30;;;1.50;;
45354;SDS011;31091;48.758;9.150;2023-04-23T09:15:17;4.47;;;1.70;;
45354;SDS011;31091;48.758;9.150;2023-04-23T09:18:03;2.15;;;1.30;;
45354;SDS011;31091;48.758;9.150;2023-04-23T09:20:48;0.98;;;0.88;;
45354;SDS011;31091;48.758;9.150;2023-04-23T09:23:33;4.28;;;1.70;;
45354;SDS011;31091;48.758;9.150;2023-04-23T09:26:22;1.60;;;1.17;;
45354;SDS011;31091;48.758;9.150;2023-04-23T09:29:11;2.65;;;1.17;;
45354;SDS011;31091;48.758;9.150;2023-04-23T09:34:42;2.83;;;1.40;;
45354;SDS011;31091;48.758;9.150;2023-04-23T09:37:27;1.10;;;1.00;;
45354;SDS011;31091;48.758;9.150;2023-04-23T09:40:13;1.85;;;1.20;;
45354;SDS011;31091;48.758;9.150;2023-04-23T09:42:58;2.17;;;1.10;;
45354;SDS011;31091;48.758;9.150;2023-04-23T09:45:50;5.13;;;1.42;;
45354;SDS011;31091;48.758;9.150;2023-04-23T09:48:39;2.63;;;1.20;;
45354;SDS011;31091;48.758;9.150;2023-04-23T09:54:12;1.10;;;1.00;;
45354;SDS011;31091;48.758;9.150;2023-04-23T09:56:58;2.38;;;1.10;;
45354;SDS011;31091;48.758;9.150;2023-04-23T09:59:46;1.77;;;1.10;;
45354;SDS011;31091;48.758;9.150;2023-04-23T10:02:31;1.83;;;0.93;;
45354;SDS011;31091;48.758;9.150;2023-04-23T10:05:18;1.25;;;0.98;;
45354;SDS011;31091;48.758;9.150;2023-04-23T10:08:04;18.48;;;4.00;;
45354;SDS011;31091;48.758;9.150;2023-04-23T10:10:50;3.08;;;1.10;;
45354;SDS011;31091;48.758;9.150;2023-04-23T10:13:35;1.63;;;1.15;;
45354;SDS011;31091;48.758;9.150;2023-04-23T10:16:21;1.52;;;1.23;;
45354;SDS011;31091;48.758;9.150;2023-04-23T10:19:07;1.85;;;0.90;;
45354;SDS011;31091;48.758;9.150;2023-04-23T10:21:54;4.95;;;1.42;;
45354;SDS011;31091;48.758;9.150;2023-04-23T10:24:41;1.38;;;1.08;;
45354;SDS011;31091;48.758;9.150;2023-04-23T10:27:29;2.28;;;1.20;;
45354;SDS011;31091;48.758;9.150;2023-04-23T10:30:14;4.32;;;1.23;;
45354;SDS011;31091;48.758;9.150;2023-04-23T10:33:00;1.67;;;0.98;;
45354;SDS011;31091;48.758;9.150;2023-04-23T10:35:46;1.30;;;0.98;;
45354;SDS011;31091;48.758;9.150;2023-04-23T10:38:32;1.48;;;1.10;;
45354;SDS011;31091;48.758;9.150;2023-04-23T10:41:17;1.23;;;1.05;;
45354;SDS011;31091;48.758;9.150;2023-04-23T10:44:11;1.40;;;1.20;;
45354;SDS011;31091;48.758;9.150;2023-04-23T10:46:57;1.48;;;1.20;;
45354;SDS011;31091;48.758;9.150;2023-04-23T10:49:42;1.00;;;0.90;;
45354;SDS011;31091;48.758;9.150;2023-04-23T10:52:28;1.88;;;1.17;;
45354;SDS011;31091;48.758;9.150;2023-04-23T10:55:16;1.83;;;0.93;;
45354;SDS011;31091;48.758;9.150;2023-04-23T10:58:03;1.38;;;1.15;;
45354;SDS011;31091;48.758;9.150;2023-04-23T11:00:48;0.95;;;0.80;;
45354;SDS011;31091;48.758;9.150;2023-04-23T11:03:38;1.13;;;1.02;;
45354;SDS011;31091;48.758;9.150;2023-04-23T11:09:44;4.40;;;1.25;;
45354;SDS011;31091;48.758;9.150;2023-04-23T11:12:30;1.13;;;1.00;;
45354;SDS011;31091;48.758;9.150;2023-04-23T11:15:17;2.13;;;1.20;;
45354;SDS011;31091;48.758;9.150;2023-04-23T11:18:03;2.63;;;1.40;;
45354;SDS011;31091;48.758;9.150;2023-04-23T11:20:48;2.72;;;1.27;;
45354;SDS011;31091;48.758;9.150;2023-04-23T11:23:35;1.13;;;1.02;;
45354;SDS011;31091;48.758;9.150;2023-04-23T11:26:20;2.30;;;1.30;;
45354;SDS011;31091;48.758;9.150;2023-04-23T11:29:06;1.55;;;1.20;;
45354;SDS011;31091;48.758;9.150;2023-04-23T11:31:52;2.90;;;1.10;;
45354;SDS011;31091;48.758;9.150;2023-04-23T11:34:38;2.20;;;1.40;;
45354;SDS011;31091;48.758;9.150;2023-04-23T11:37:24;1.10;;;1.00;;
45354;SDS011;31091;48.758;9.150;2023-04-23T11:40:10;0.95;;;0.85;;
45354;SDS011;31091;48.758;9.150;2023-04-23T11:42:57;1.80;;;1.00;;
45354;SDS011;31091;48.758;9.150;2023-04-23T11:45:43;1.10;;;0.85;;
45354;SDS011;31091;48.758;9.150;2023-04-23T11:48:28;1.48;;;1.00;;
45354;SDS011;31091;48.758;9.150;2023-04-23T11:51:13;2.15;;;0.90;;
45354;SDS011;31091;48.758;9.150;2023-04-23T11:54:03;0.82;;;0.82;;
45354;SDS011;31091;48.758;9.150;2023-04-23T11:56:48;2.73;;;1.07;;
45354;SDS011;31091;48.758;9.150;2023-04-23T11:59:37;1.07;;;0.97;;
45354;SDS011;31091;48.758;9.150;2023-04-23T12:02:22;3.05;;;1.30;;
45354;SDS011;31091;48.758;9.150;2023-04-23T12:05:08;2.00;;;1.00;;
45354;SDS011;31091;48.758;9.150;2023-04-23T12:07:53;1.95;;;1.15;;
45354;SDS011;31091;48.758;9.150;2023-04-23T12:13:30;1.88;;;0.80;;
45354;SDS011;31091;48.758;9.150;2023-04-23T12:16:18;8.60;;;1.10;;
45354;SDS011;31091;48.758;9.150;2023-04-23T12:19:18;1.00;;;0.90;;
45354;SDS011;31091;48.758;9.150;2023-04-23T12:22:03;1.50;;;1.13;;
45354;SDS011;31091;48.758;9.150;2023-04-23T12:24:48;2.70;;;1.02;;
45354;SDS011;31091;48.758;9.150;2023-04-23T12:27:43;1.27;;;0.75;;
45354;SDS011;31091;48.758;9.150;2023-04-23T12:30:29;1.88;;;0.70;;
45354;SDS011;31091;48.758;9.150;2023-04-23T12:33:14;1.23;;;0.88;;
45354;SDS011;31091;48.758;9.150;2023-04-23T12:36:00;1.85;;;0.98;;
45354;SDS011;31091;48.758;9.150;2023-04-23T12:38:45;0.93;;;0.80;;
45354;SDS011;31091;48.758;9.150;2023-04-23T12:41:30;1.48;;;0.98;;
45354;SDS011;31091;48.758;9.150;2023-04-23T12:44:16;1.05;;;0.95;;
45354;SDS011;31091;48.758;9.150;2023-04-23T12:47:02;1.38;;;0.93;;
45354;SDS011;31091;48.758;9.150;2023-04-23T12:49:48;1.30;;;1.00;;
45354;SDS011;31091;48.758;9.150;2023-04-23T12:52:37;1.98;;;1.05;;
45354;SDS011;31091;48.758;9.150;2023-04-23T12:55:22;1.33;;;0.85;;
45354;SDS011;31091;48.758;9.150;2023-04-23T12:58:07;1.15;;;1.05;;
45354;SDS011;31091;48.758;9.150;2023-04-23T13:00:53;3.47;;;1.35;;
45354;SDS011;31091;48.758;9.150;2023-04-23T13:03:38;1.90;;;1.20;;
45354;SDS011;31091;48.758;9.150;2023-04-23T13:06:24;2.13;;;1.20;;
45354;SDS011;31091;48.758;9.150;2023-04-23T13:09:10;1.80;;;1.20;;
45354;SDS011;31091;48.758;9.150;2023-04-23T13:11:55;4.70;;;1.40;;
45354;SDS011;31091;48.758;9.150;2023-04-23T13:14:40;1.67;;;0.90;;
45354;SDS011;31091;48.758;9.150;2023-04-23T13:17:26;1.98;;;1.30;;
45354;SDS011;31091;48.758;9.150;2023-04-23T13:20:11;3.53;;;1.10;;
45354;SDS011;31091;48.758;9.150;2023-04-23T13:22:56;2.47;;;1.45;;
45354;SDS011;31091;48.758;9.150;2023-04-23T13:25:42;2.05;;;1.42;;
45354;SDS011;31091;48.758;9.150;2023-04-23T13:28:27;1.60;;;1.02;;
45354;SDS011;31091;48.758;9.150;2023-04-23T13:31:12;1.88;;;1.02;;
45354;SDS011;31091;48.758;9.150;2023-04-23T13:33:58;2.97;;;1.23;;
45354;SDS011;31091;48.758;9.150;2023-04-23T13:36:43;2.05;;;1.20;;
45354;SDS011;31091;48.758;9.150;2023-04-23T13:39:28;1.10;;;1.00;;
45354;SDS011;31091;48.758;9.150;2023-04-23T13:42:14;2.40;;;1.33;;
45354;SDS011;31091;48.758;9.150;2023-04-23T13:44:59;3.45;;;1.90;;
45354;SDS011;31091;48.758;9.150;2023-04-23T13:47:44;3.83;;;1.38;;
45354;SDS011;31091;48.758;9.150;2023-04-23T13:50:29;3.75;;;1.30;;
45354;SDS011;31091;48.758;9.150;2023-04-23T13:53:15;1.20;;;0.98;;
45354;SDS011;31091;48.758;9.150;2023-04-23T13:56:00;2.53;;;1.15;;
45354;SDS011;31091;48.758;9.150;2023-04-23T13:58:45;3.47;;;1.15;;
45354;SDS011;31091;48.758;9.150;2023-04-23T14:01:32;1.58;;;0.80;;
45354;SDS011;31091;48.758;9.150;2023-04-23T14:04:19;2.35;;;0.95;;
45354;SDS011;31091;48.758;9.150;2023-04-23T14:07:04;1.70;;;1.20;;
45354;SDS011;31091;48.758;9.150;2023-04-23T14:09:50;2.15;;;0.98;;
45354;SDS011;31091;48.758;9.150;2023-04-23T14:12:37;1.88;;;0.75;;
45354;SDS011;31091;48.758;9.150;2023-04-23T14:15:22;3.45;;;1.58;;
45354;SDS011;31091;48.758;9.150;2023-04-23T14:18:08;3.22;;;0.90;;
45354;SDS011;31091;48.758;9.150;2023-04-23T14:20:53;1.95;;;0.90;;
45354;SDS011;31091;48.758;9.150;2023-04-23T14:32:06;2.13;;;1.40;;
45354;SDS011;31091;48.758;9.150;2023-04-23T14:34:52;3.08;;;1.00;;
45354;SDS011;31091;48.758;9.150;2023-04-23T14:37:37;2.22;;;1.40;;
45354;SDS011;31091;48.758;9.150;2023-04-23T14:40:22;3.72;;;1.48;;
45354;SDS011;31091;48.758;9.150;2023-04-23T14:43:07;7.95;;;1.95;;
45354;SDS011;31091;48.758;9.150;2023-04-23T14:45:53;2.95;;;1.50;;
45354;SDS011;31091;48.758;9.150;2023-04-23T14:48:38;1.23;;;0.95;;
45354;SDS011;31091;48.758;9.150;2023-04-23T14:51:23;2.65;;;1.40;;
45354;SDS011;31091;48.758;9.150;2023-04-23T14:54:09;2.40;;;1.13;;
45354;SDS011;31091;48.758;9.150;2023-04-23T14:56:54;1.42;;;1.33;;
45354;SDS011;31091;48.758;9.150;2023-04-23T14:59:40;5.72;;;1.00;;
45354;SDS011;31091;48.758;9.150;2023-04-23T15:02:25;1.35;;;1.15;;
45354;SDS011;31091;48.758;9.150;2023-04-23T15:05:11;2.50;;;1.10;;
45354;SDS011;31091;48.758;9.150;2023-04-23T15:07:56;2.50;;;1.20;;
45354;SDS011;31091;48.758;9.150;2023-04-23T15:10:42;2.60;;;1.45;;
45354;SDS011;31091;48.758;9.150;2023-04-23T15:16:26;5.60;;;1.55;;
45354;SDS011;31091;48.758;9.150;2023-04-23T15:19:13;8.35;;;3.65;;
45354;SDS011;31091;48.758;9.150;2023-04-23T15:21:58;4.72;;;3.00;;
45354;SDS011;31091;48.758;9.150;2023-04-23T15:24:43;3.58;;;2.00;;
45354;SDS011;31091;48.758;9.150;2023-04-23T15:27:29;2.60;;;1.40;;
45354;SDS011;31091;48.758;9.150;2023-04-23T15:30:14;4.10;;;1.63;;
45354;SDS011;31091;48.758;9.150;2023-04-23T15:32:59;3.55;;;1.58;;
45354;SDS011;31091;48.758;9.150;2023-04-23T15:35:45;2.70;;;1.50;;
45354;SDS011;31091;48.758;9.150;2023-04-23T15:38:30;5.18;;;2.10;;
45354;SDS011;31091;48.758;9.150;2023-04-23T15:41:15;2.90;;;1.90;;
45354;SDS011;31091;48.758;9.150;2023-04-23T15:44:01;2.45;;;1.00;;
45354;SDS011;31091;48.758;9.150;2023-04-23T15:46:46;6.22;;;1.80;;
45354;SDS011;31091;48.758;9.150;2023-04-23T15:49:31;1.80;;;1.30;;
45354;SDS011;31091;48.758;9.150;2023-04-23T15:52:16;1.73;;;1.00;;
45354;SDS011;31091;48.758;9.150;2023-04-23T15:55:02;2.65;;;2.08;;
45354;SDS011;31091;48.758;9.150;2023-04-23T15:57:48;3.38;;;1.77;;
45354;SDS011;31091;48.758;9.150;2023-04-23T16:00:34;2.50;;;1.13;;
45354;SDS011;31091;48.758;9.150;2023-04-23T16:03:19;1.17;;;1.08;;
45354;SDS011;31091;48.758;9.150;2023-04-23T16:06:05;2.83;;;1.52;;
45354;SDS011;31091;48.758;9.150;2023-04-23T16:08:50;3.28;;;1.40;;
45354;SDS011;31091;48.758;9.150;2023-04-23T16:11:36;2.67;;;1.30;;
45354;SDS011;31091;48.758;9.150;2023-04-23T16:14:21;1.83;;;1.50;;
45354;SDS011;31091;48.758;9.150;2023-04-23T16:17:07;5.93;;;1.73;;
45354;SDS011;31091;48.758;9.150;2023-04-23T16:19:52;2.28;;;1.42;;
45354;SDS011;31091;48.758;9.150;2023-04-23T16:22:37;6.13;;;1.70;;
45354;SDS011;31091;48.758;9.150;2023-04-23T16:25:22;2.30;;;1.73;;
45354;SDS011;31091;48.758;9.150;2023-04-23T16:28:08;4.10;;;1.50;;
45354;SDS011;31091;48.758;9.150;2023-04-23T16:30:53;3.30;;;1.80;;
45354;SDS011;31091;48.758;9.150;2023-04-23T16:33:38;5.70;;;1.80;;
45354;SDS011;31091;48.758;9.150;2023-04-23T16:36:24;3.28;;;1.63;;
45354;SDS011;31091;48.758;9.150;2023-04-23T16:39:09;1.75;;;1.30;;
45354;SDS011;31091;48.758;9.150;2023-04-23T16:41:55;2.55;;;1.10;;
45354;SDS011;31091;48.758;9.150;2023-04-23T16:44:40;8.63;;;2.33;;
45354;SDS011;31091;48.758;9.150;2023-04-23T16:47:25;4.47;;;1.20;;
45354;SDS011;31091;48.758;9.150;2023-04-23T16:50:10;3.30;;;1.55;;
45354;SDS011;31091;48.758;9.150;2023-04-23T16:52:56;4.93;;;1.30;;
45354;SDS011;31091;48.758;9.150;2023-04-23T16:55:41;1.70;;;1.33;;
45354;SDS011;31091;48.758;9.150;2023-04-23T16:58:26;1.85;;;1.02;;
45354;SDS011;31091;48.758;9.150;2023-04-23T17:01:13;2.75;;;1.73;;